sensor_id;sensor_type;location;lat;lon;timestamp;P1;durP1;ratioP1;P2;durP2;ratioP2
55067;SDS011;40965;52.368;9.712;2024-01-30T00:02:14;13.10;;;7.97;;
55067;SDS011;40965;52.368;9.712;2024-01-30T00:04:41;11.82;;;8.45;;
55067;SDS011;40965;52.368;9.712;2024-01-30T00:07:10;13.95;;;8.07;;
55067;SDS011;40965;52.368;9.712;2024-01-30T00:09:40;12.45;;;7.72;;
55067;SDS011;40965;52.368;9.712;2024-01-30T00:12:25;13.00;;;8.07;;
55067;SDS011;40965;52.368;9.712;2024-01-30T00:14:52;12.93;;;8.77;;
55067;SDS011;40965;52.368;9.712;2024-01-30T00:17:25;14.45;;;8.82;;
55067;SDS011;40965;52.368;9.712;2024-01-30T00:19:55;13.32;;;8.55;;
55067;SDS011;40965;52.368;9.712;2024-01-30T00:22:22;16.65;;;8.70;;
55067;SDS011;40965;52.368;9.712;2024-01-30T00:24:49;19.33;;;9.65;;
55067;SDS011;40965;52.368;9.712;2024-01-30T00:27:17;10.02;;;8.15;;
55067;SDS011;40965;52.368;9.712;2024-01-30T00:29:44;13.02;;;8.80;;
55067;SDS011;40965;52.368;9.712;2024-01-30T00:32:10;9.32;;;7.40;;
55067;SDS011;40965;52.368;9.712;2024-01-30T00:34:37;11.15;;;8.10;;
55067;SDS011;40965;52.368;9.712;2024-01-30T00:37:04;12.10;;;7.85;;
55067;SDS011;40965;52.368;9.712;2024-01-30T00:39:31;22.05;;;9.32;;
55067;SDS011;40965;52.368;9.712;2024-01-30T00:41:58;13.82;;;8.35;;
55067;SDS011;40965;52.368;9.712;2024-01-30T00:44:27;10.27;;;7.65;;
55067;SDS011;40965;52.368;9.712;2024-01-30T00:46:54;10.57;;;8.07;;
55067;SDS011;40965;52.368;9.712;2024-01-30T00:49:21;12.65;;;8.55;;
55067;SDS011;40965;52.368;9.712;2024-01-30T00:51:48;17.38;;;8.68;;
55067;SDS011;40965;52.368;9.712;2024-01-30T00:54:14;11.43;;;8.40;;
55067;SDS011;40965;52.368;9.712;2024-01-30T00:56:41;12.75;;;8.98;;
55067;SDS011;40965;52.368;9.712;2024-01-30T00:59:08;12.85;;;8.98;;
55067;SDS011;40965;52.368;9.712;2024-01-30T01:01:34;11.75;;;8.50;;
55067;SDS011;40965;52.368;9.712;2024-01-30T01:04:01;13.40;;;9.25;;
55067;SDS011;40965;52.368;9.712;2024-01-30T01:06:28;13.63;;;8.55;;
55067;SDS011;40965;52.368;9.712;2024-01-30T01:08:55;14.50;;;9.02;;
55067;SDS011;40965;52.368;9.712;2024-01-30T01:11:21;12.43;;;9.30;;
55067;SDS011;40965;52.368;9.712;2024-01-30T01:13:48;16.15;;;8.98;;
55067;SDS011;40965;52.368;9.712;2024-01-30T01:16:15;15.10;;;8.63;;
55067;SDS011;40965;52.368;9.712;2024-01-30T01:18:41;12.25;;;7.85;;
55067;SDS011;40965;52.368;9.712;2024-01-30T01:21:08;11.98;;;8.55;;
55067;SDS011;40965;52.368;9.712;2024-01-30T01:23:35;18.70;;;8.85;;
55067;SDS011;40965;52.368;9.712;2024-01-30T01:26:01;14.77;;;9.02;;
55067;SDS011;40965;52.368;9.712;2024-01-30T01:28:31;10.95;;;7.88;;
55067;SDS011;40965;52.368;9.712;2024-01-30T01:31:01;17.20;;;8.18;;
55067;SDS011;40965;52.368;9.712;2024-01-30T01:33:33;11.52;;;9.27;;
55067;SDS011;40965;52.368;9.712;2024-01-30T01:36:02;13.93;;;8.48;;
55067;SDS011;40965;52.368;9.712;2024-01-30T01:38:29;16.33;;;9.05;;
55067;SDS011;40965;52.368;9.712;2024-01-30T01:40:55;14.95;;;8.73;;
55067;SDS011;40965;52.368;9.712;2024-01-30T01:43:28;12.85;;;9.43;;
55067;SDS011;40965;52.368;9.712;2024-01-30T01:45:55;14.70;;;8.95;;
55067;SDS011;40965;52.368;9.712;2024-01-30T01:48:21;13.50;;;8.57;;
55067;SDS011;40965;52.368;9.712;2024-01-30T01:50:48;14.70;;;8.18;;
55067;SDS011;40965;52.368;9.712;2024-01-30T01:53:17;13.32;;;8.32;;
55067;SDS011;40965;52.368;9.712;2024-01-30T01:55:48;13.52;;;8.63;;
55067;SDS011;40965;52.368;9.712;2024-01-30T01:58:15;19.17;;;9.73;;
55067;SDS011;40965;52.368;9.712;2024-01-30T02:00:42;12.00;;;8.98;;
55067;SDS011;40965;52.368;9.712;2024-01-30T02:03:12;13.02;;;8.95;;
55067;SDS011;40965;52.368;9.712;2024-01-30T02:05:40;10.60;;;7.63;;
55067;SDS011;40965;52.368;9.712;2024-01-30T02:08:08;17.05;;;9.15;;
55067;SDS011;40965;52.368;9.712;2024-01-30T02:10:35;12.43;;;8.55;;
55067;SDS011;40965;52.368;9.712;2024-01-30T02:13:01;12.85;;;8.30;;
55067;SDS011;40965;52.368;9.712;2024-01-30T02:15:29;22.30;;;11.43;;
55067;SDS011;40965;52.368;9.712;2024-01-30T02:17:56;11.73;;;8.73;;
55067;SDS011;40965;52.368;9.712;2024-01-30T02:20:23;14.45;;;8.98;;
55067;SDS011;40965;52.368;9.712;2024-01-30T02:22:52;13.35;;;9.27;;
55067;SDS011;40965;52.368;9.712;2024-01-30T02:25:29;9.90;;;7.50;;
55067;SDS011;40965;52.368;9.712;2024-01-30T02:28:10;10.60;;;8.23;;
55067;SDS011;40965;52.368;9.712;2024-01-30T02:30:40;13.27;;;8.93;;
55067;SDS011;40965;52.368;9.712;2024-01-30T02:33:06;12.45;;;8.82;;
55067;SDS011;40965;52.368;9.712;2024-01-30T02:35:35;19.35;;;10.02;;
55067;SDS011;40965;52.368;9.712;2024-01-30T02:38:02;13.75;;;9.13;;
55067;SDS011;40965;52.368;9.712;2024-01-30T02:40:29;14.15;;;8.95;;
55067;SDS011;40965;52.368;9.712;2024-01-30T02:42:56;14.52;;;9.05;;
55067;SDS011;40965;52.368;9.712;2024-01-30T02:45:27;16.52;;;8.68;;
55067;SDS011;40965;52.368;9.712;2024-01-30T02:47:54;13.90;;;9.05;;
55067;SDS011;40965;52.368;9.712;2024-01-30T02:50:21;13.13;;;8.07;;
55067;SDS011;40965;52.368;9.712;2024-01-30T02:52:47;12.80;;;9.18;;
55067;SDS011;40965;52.368;9.712;2024-01-30T02:55:14;13.98;;;9.05;;
55067;SDS011;40965;52.368;9.712;2024-01-30T02:57:45;11.65;;;9.32;;
55067;SDS011;40965;52.368;9.712;2024-01-30T03:00:15;11.82;;;9.48;;
55067;SDS011;40965;52.368;9.712;2024-01-30T03:02:41;13.27;;;8.93;;
55067;SDS011;40965;52.368;9.712;2024-01-30T03:05:08;14.75;;;8.65;;
55067;SDS011;40965;52.368;9.712;2024-01-30T03:07:35;16.00;;;8.95;;
55067;SDS011;40965;52.368;9.712;2024-01-30T03:10:05;11.57;;;8.52;;
55067;SDS011;40965;52.368;9.712;2024-01-30T03:12:32;13.27;;;9.13;;
55067;SDS011;40965;52.368;9.712;2024-01-30T03:15:04;15.65;;;9.85;;
55067;SDS011;40965;52.368;9.712;2024-01-30T03:17:34;16.45;;;9.20;;
55067;SDS011;40965;52.368;9.712;2024-01-30T03:20:04;15.00;;;9.52;;
55067;SDS011;40965;52.368;9.712;2024-01-30T03:22:34;13.52;;;9.50;;
55067;SDS011;40965;52.368;9.712;2024-01-30T03:25:00;12.77;;;8.80;;
55067;SDS011;40965;52.368;9.712;2024-01-30T03:27:30;13.77;;;9.13;;
55067;SDS011;40965;52.368;9.712;2024-01-30T03:29:56;14.82;;;9.30;;
55067;SDS011;40965;52.368;9.712;2024-01-30T03:32:23;17.48;;;9.38;;
55067;SDS011;40965;52.368;9.712;2024-01-30T03:34:50;14.93;;;8.52;;
55067;SDS011;40965;52.368;9.712;2024-01-30T03:37:16;14.55;;;9.88;;
55067;SDS011;40965;52.368;9.712;2024-01-30T03:39:44;19.20;;;8.80;;
55067;SDS011;40965;52.368;9.712;2024-01-30T03:42:11;11.52;;;8.00;;
55067;SDS011;40965;52.368;9.712;2024-01-30T03:44:37;13.95;;;9.02;;
55067;SDS011;40965;52.368;9.712;2024-01-30T03:47:04;12.13;;;7.35;;
55067;SDS011;40965;52.368;9.712;2024-01-30T03:49:33;13.55;;;9.65;;
55067;SDS011;40965;52.368;9.712;2024-01-30T03:52:00;12.05;;;8.80;;
55067;SDS011;40965;52.368;9.712;2024-01-30T03:54:26;16.08;;;8.45;;
55067;SDS011;40965;52.368;9.712;2024-01-30T03:56:56;12.57;;;8.68;;
55067;SDS011;40965;52.368;9.712;2024-01-30T03:59:22;14.50;;;9.10;;
55067;SDS011;40965;52.368;9.712;2024-01-30T04:01:49;18.80;;;10.88;;
55067;SDS011;40965;52.368;9.712;2024-01-30T04:04:20;13.00;;;8.20;;
55067;SDS011;40965;52.368;9.712;2024-01-30T04:06:46;14.63;;;8.55;;
55067;SDS011;40965;52.368;9.712;2024-01-30T04:09:13;15.32;;;8.63;;
55067;SDS011;40965;52.368;9.712;2024-01-30T04:11:40;13.45;;;8.98;;
55067;SDS011;40965;52.368;9.712;2024-01-30T04:14:08;11.70;;;8.63;;
55067;SDS011;40965;52.368;9.712;2024-01-30T04:16:35;15.65;;;8.57;;
55067;SDS011;40965;52.368;9.712;2024-01-30T04:19:01;13.32;;;8.32;;
55067;SDS011;40965;52.368;9.712;2024-01-30T04:21:28;10.40;;;7.85;;
55067;SDS011;40965;52.368;9.712;2024-01-30T04:23:55;14.30;;;8.52;;
55067;SDS011;40965;52.368;9.712;2024-01-30T04:26:21;13.52;;;8.57;;
55067;SDS011;40965;52.368;9.712;2024-01-30T04:28:48;13.80;;;8.27;;
55067;SDS011;40965;52.368;9.712;2024-01-30T04:31:15;16.85;;;9.30;;
55067;SDS011;40965;52.368;9.712;2024-01-30T04:33:41;16.45;;;9.20;;
55067;SDS011;40965;52.368;9.712;2024-01-30T04:36:08;13.30;;;8.25;;
55067;SDS011;40965;52.368;9.712;2024-01-30T04:38:36;11.20;;;7.95;;
55067;SDS011;40965;52.368;9.712;2024-01-30T04:41:03;10.75;;;7.90;;
55067;SDS011;40965;52.368;9.712;2024-01-30T04:43:30;10.38;;;8.05;;
55067;SDS011;40965;52.368;9.712;2024-01-30T04:45:56;14.30;;;9.38;;
55067;SDS011;40965;52.368;9.712;2024-01-30T04:48:23;10.27;;;7.72;;
55067;SDS011;40965;52.368;9.712;2024-01-30T04:50:49;16.17;;;9.43;;
55067;SDS011;40965;52.368;9.712;2024-01-30T04:53:16;19.05;;;8.73;;
55067;SDS011;40965;52.368;9.712;2024-01-30T04:55:44;16.02;;;9.52;;
55067;SDS011;40965;52.368;9.712;2024-01-30T04:58:10;13.98;;;7.90;;
55067;SDS011;40965;52.368;9.712;2024-01-30T05:00:37;14.10;;;9.27;;
55067;SDS011;40965;52.368;9.712;2024-01-30T05:03:03;16.30;;;8.45;;
55067;SDS011;40965;52.368;9.712;2024-01-30T05:05:30;10.30;;;7.78;;
55067;SDS011;40965;52.368;9.712;2024-01-30T05:07:57;11.85;;;8.27;;
55067;SDS011;40965;52.368;9.712;2024-01-30T05:10:23;10.75;;;7.88;;
55067;SDS011;40965;52.368;9.712;2024-01-30T05:12:50;10.13;;;8.13;;
55067;SDS011;40965;52.368;9.712;2024-01-30T05:15:16;11.05;;;7.90;;
55067;SDS011;40965;52.368;9.712;2024-01-30T05:17:44;13.57;;;8.48;;
55067;SDS011;40965;52.368;9.712;2024-01-30T05:20:11;11.20;;;8.05;;
55067;SDS011;40965;52.368;9.712;2024-01-30T05:22:38;13.60;;;8.13;;
55067;SDS011;40965;52.368;9.712;2024-01-30T05:25:10;15.60;;;7.85;;
55067;SDS011;40965;52.368;9.712;2024-01-30T05:27:38;10.52;;;7.40;;
55067;SDS011;40965;52.368;9.712;2024-01-30T05:30:08;11.93;;;7.68;;
55067;SDS011;40965;52.368;9.712;2024-01-30T05:32:35;12.15;;;7.57;;
55067;SDS011;40965;52.368;9.712;2024-01-30T05:35:02;11.10;;;7.70;;
55067;SDS011;40965;52.368;9.712;2024-01-30T05:37:34;10.38;;;8.23;;
55067;SDS011;40965;52.368;9.712;2024-01-30T05:40:00;15.70;;;8.90;;
55067;SDS011;40965;52.368;9.712;2024-01-30T05:42:27;12.52;;;8.13;;
55067;SDS011;40965;52.368;9.712;2024-01-30T05:44:54;13.43;;;9.23;;
55067;SDS011;40965;52.368;9.712;2024-01-30T05:47:21;13.93;;;7.85;;
55067;SDS011;40965;52.368;9.712;2024-01-30T05:49:47;15.73;;;7.80;;
55067;SDS011;40965;52.368;9.712;2024-01-30T05:52:16;8.82;;;7.07;;
55067;SDS011;40965;52.368;9.712;2024-01-30T05:54:44;10.57;;;7.90;;
55067;SDS011;40965;52.368;9.712;2024-01-30T05:57:11;12.00;;;9.32;;
55067;SDS011;40965;52.368;9.712;2024-01-30T05:59:38;16.70;;;8.30;;
55067;SDS011;40965;52.368;9.712;2024-01-30T06:02:05;12.07;;;7.80;;
55067;SDS011;40965;52.368;9.712;2024-01-30T06:04:31;17.20;;;9.15;;
55067;SDS011;40965;52.368;9.712;2024-01-30T06:06:58;14.13;;;8.77;;
55067;SDS011;40965;52.368;9.712;2024-01-30T06:09:26;12.63;;;8.68;;
55067;SDS011;40965;52.368;9.712;2024-01-30T06:11:53;17.48;;;8.30;;
55067;SDS011;40965;52.368;9.712;2024-01-30T06:14:20;15.23;;;8.80;;
55067;SDS011;40965;52.368;9.712;2024-01-30T06:16:47;15.32;;;8.80;;
55067;SDS011;40965;52.368;9.712;2024-01-30T06:19:13;16.95;;;9.80;;
55067;SDS011;40965;52.368;9.712;2024-01-30T06:21:40;13.02;;;8.18;;
55067;SDS011;40965;52.368;9.712;2024-01-30T06:24:07;8.75;;;7.18;;
55067;SDS011;40965;52.368;9.712;2024-01-30T06:26:33;14.07;;;7.88;;
55067;SDS011;40965;52.368;9.712;2024-01-30T06:29:00;11.18;;;7.53;;
55067;SDS011;40965;52.368;9.712;2024-01-30T06:31:27;10.65;;;7.95;;
55067;SDS011;40965;52.368;9.712;2024-01-30T06:33:53;15.38;;;8.45;;
55067;SDS011;40965;52.368;9.712;2024-01-30T06:36:20;9.38;;;7.93;;
55067;SDS011;40965;52.368;9.712;2024-01-30T06:38:48;10.30;;;7.90;;
55067;SDS011;40965;52.368;9.712;2024-01-30T06:41:15;10.15;;;7.50;;
55067;SDS011;40965;52.368;9.712;2024-01-30T06:43:41;14.07;;;7.93;;
55067;SDS011;40965;52.368;9.712;2024-01-30T06:46:10;11.88;;;8.88;;
55067;SDS011;40965;52.368;9.712;2024-01-30T06:48:36;13.50;;;8.00;;
55067;SDS011;40965;52.368;9.712;2024-01-30T06:51:05;11.23;;;8.18;;
55067;SDS011;40965;52.368;9.712;2024-01-30T06:53:32;13.10;;;8.95;;
55067;SDS011;40965;52.368;9.712;2024-01-30T06:55:59;17.02;;;8.70;;
55067;SDS011;40965;52.368;9.712;2024-01-30T06:58:25;13.32;;;9.05;;
55067;SDS011;40965;52.368;9.712;2024-01-30T07:00:52;15.68;;;8.68;;
55067;SDS011;40965;52.368;9.712;2024-01-30T07:03:19;12.23;;;8.50;;
55067;SDS011;40965;52.368;9.712;2024-01-30T07:05:45;12.43;;;9.05;;
55067;SDS011;40965;52.368;9.712;2024-01-30T07:08:12;10.48;;;7.20;;
55067;SDS011;40965;52.368;9.712;2024-01-30T07:10:40;13.57;;;7.43;;
55067;SDS011;40965;52.368;9.712;2024-01-30T07:13:06;13.15;;;7.88;;
55067;SDS011;40965;52.368;9.712;2024-01-30T07:15:35;28.65;;;10.55;;
55067;SDS011;40965;52.368;9.712;2024-01-30T07:18:02;14.10;;;9.00;;
55067;SDS011;40965;52.368;9.712;2024-01-30T07:20:29;15.95;;;8.50;;
55067;SDS011;40965;52.368;9.712;2024-01-30T07:22:57;19.83;;;9.80;;
55067;SDS011;40965;52.368;9.712;2024-01-30T07:25:24;15.38;;;9.65;;
55067;SDS011;40965;52.368;9.712;2024-01-30T07:27:55;16.60;;;9.43;;
55067;SDS011;40965;52.368;9.712;2024-01-30T07:30:22;15.73;;;9.98;;
55067;SDS011;40965;52.368;9.712;2024-01-30T07:32:49;13.55;;;8.18;;
55067;SDS011;40965;52.368;9.712;2024-01-30T07:35:16;13.73;;;7.68;;
55067;SDS011;40965;52.368;9.712;2024-01-30T07:37:42;12.32;;;8.38;;
55067;SDS011;40965;52.368;9.712;2024-01-30T07:40:10;10.52;;;8.20;;
55067;SDS011;40965;52.368;9.712;2024-01-30T07:42:37;11.50;;;7.78;;
55067;SDS011;40965;52.368;9.712;2024-01-30T07:45:04;14.73;;;7.55;;
55067;SDS011;40965;52.368;9.712;2024-01-30T07:47:31;13.40;;;7.88;;
55067;SDS011;40965;52.368;9.712;2024-01-30T07:49:57;15.48;;;8.57;;
55067;SDS011;40965;52.368;9.712;2024-01-30T07:52:24;14.70;;;7.53;;
55067;SDS011;40965;52.368;9.712;2024-01-30T07:54:50;26.48;;;10.02;;
55067;SDS011;40965;52.368;9.712;2024-01-30T07:57:17;10.73;;;7.47;;
55067;SDS011;40965;52.368;9.712;2024-01-30T07:59:44;12.82;;;6.72;;
55067;SDS011;40965;52.368;9.712;2024-01-30T08:02:11;12.10;;;8.05;;
55067;SDS011;40965;52.368;9.712;2024-01-30T08:04:41;12.57;;;7.68;;
55067;SDS011;40965;52.368;9.712;2024-01-30T08:07:07;12.23;;;7.05;;
55067;SDS011;40965;52.368;9.712;2024-01-30T08:09:33;13.93;;;7.47;;
55067;SDS011;40965;52.368;9.712;2024-01-30T08:12:00;14.18;;;7.80;;
55067;SDS011;40965;52.368;9.712;2024-01-30T08:14:26;14.93;;;7.47;;
55067;SDS011;40965;52.368;9.712;2024-01-30T08:16:53;11.32;;;7.68;;
55067;SDS011;40965;52.368;9.712;2024-01-30T08:19:20;11.65;;;8.18;;
55067;SDS011;40965;52.368;9.712;2024-01-30T08:21:46;16.23;;;8.75;;
55067;SDS011;40965;52.368;9.712;2024-01-30T08:24:13;13.50;;;8.02;;
55067;SDS011;40965;52.368;9.712;2024-01-30T08:26:40;14.35;;;7.55;;
55067;SDS011;40965;52.368;9.712;2024-01-30T08:29:06;9.85;;;8.18;;
55067;SDS011;40965;52.368;9.712;2024-01-30T08:31:32;10.73;;;7.88;;
55067;SDS011;40965;52.368;9.712;2024-01-30T08:33:59;11.77;;;8.55;;
55067;SDS011;40965;52.368;9.712;2024-01-30T08:36:25;15.07;;;7.38;;
55067;SDS011;40965;52.368;9.712;2024-01-30T08:38:52;12.77;;;8.13;;
55067;SDS011;40965;52.368;9.712;2024-01-30T08:41:19;10.80;;;8.80;;
55067;SDS011;40965;52.368;9.712;2024-01-30T08:43:45;14.10;;;8.70;;
55067;SDS011;40965;52.368;9.712;2024-01-30T08:46:12;11.73;;;8.30;;
55067;SDS011;40965;52.368;9.712;2024-01-30T08:48:39;11.55;;;8.07;;
55067;SDS011;40965;52.368;9.712;2024-01-30T08:51:07;12.05;;;8.10;;
55067;SDS011;40965;52.368;9.712;2024-01-30T08:53:34;15.02;;;7.72;;
55067;SDS011;40965;52.368;9.712;2024-01-30T08:56:02;9.75;;;7.47;;
55067;SDS011;40965;52.368;9.712;2024-01-30T08:58:34;13.80;;;7.57;;
55067;SDS011;40965;52.368;9.712;2024-01-30T09:01:00;14.73;;;8.77;;
55067;SDS011;40965;52.368;9.712;2024-01-30T09:03:30;9.02;;;6.88;;
55067;SDS011;40965;52.368;9.712;2024-01-30T09:05:57;12.95;;;7.20;;
55067;SDS011;40965;52.368;9.712;2024-01-30T09:08:23;12.50;;;7.47;;
55067;SDS011;40965;52.368;9.712;2024-01-30T09:10:50;9.98;;;7.72;;
55067;SDS011;40965;52.368;9.712;2024-01-30T09:13:16;13.60;;;8.43;;
55067;SDS011;40965;52.368;9.712;2024-01-30T09:15:43;12.82;;;7.85;;
55067;SDS011;40965;52.368;9.712;2024-01-30T09:18:09;13.80;;;9.43;;
55067;SDS011;40965;52.368;9.712;2024-01-30T09:20:36;14.02;;;9.13;;
55067;SDS011;40965;52.368;9.712;2024-01-30T09:23:03;18.08;;;7.88;;
55067;SDS011;40965;52.368;9.712;2024-01-30T09:25:30;11.90;;;7.72;;
55067;SDS011;40965;52.368;9.712;2024-01-30T09:27:56;15.07;;;8.52;;
55067;SDS011;40965;52.368;9.712;2024-01-30T09:30:23;10.43;;;8.27;;
55067;SDS011;40965;52.368;9.712;2024-01-30T09:32:50;12.45;;;8.23;;
55067;SDS011;40965;52.368;9.712;2024-01-30T09:35:16;13.15;;;7.28;;
55067;SDS011;40965;52.368;9.712;2024-01-30T09:37:46;10.85;;;7.85;;
55067;SDS011;40965;52.368;9.712;2024-01-30T09:40:13;8.60;;;6.95;;
55067;SDS011;40965;52.368;9.712;2024-01-30T09:42:43;10.60;;;7.05;;
55067;SDS011;40965;52.368;9.712;2024-01-30T09:45:23;8.65;;;7.05;;
55067;SDS011;40965;52.368;9.712;2024-01-30T09:47:51;10.82;;;7.30;;
55067;SDS011;40965;52.368;9.712;2024-01-30T09:50:19;14.73;;;8.05;;
55067;SDS011;40965;52.368;9.712;2024-01-30T09:52:46;14.35;;;7.72;;
55067;SDS011;40965;52.368;9.712;2024-01-30T09:55:14;11.15;;;7.88;;
55067;SDS011;40965;52.368;9.712;2024-01-30T09:57:42;11.30;;;7.70;;
55067;SDS011;40965;52.368;9.712;2024-01-30T10:00:15;12.40;;;8.02;;
55067;SDS011;40965;52.368;9.712;2024-01-30T10:02:45;10.65;;;7.20;;
55067;SDS011;40965;52.368;9.712;2024-01-30T10:05:11;12.38;;;7.47;;
55067;SDS011;40965;52.368;9.712;2024-01-30T10:07:54;11.90;;;7.53;;
55067;SDS011;40965;52.368;9.712;2024-01-30T10:10:22;7.85;;;6.97;;
55067;SDS011;40965;52.368;9.712;2024-01-30T10:12:49;13.80;;;8.52;;
55067;SDS011;40965;52.368;9.712;2024-01-30T10:15:17;9.68;;;7.18;;
55067;SDS011;40965;52.368;9.712;2024-01-30T10:17:45;8.82;;;7.45;;
55067;SDS011;40965;52.368;9.712;2024-01-30T10:20:12;10.90;;;6.88;;
55067;SDS011;40965;52.368;9.712;2024-01-30T10:22:40;11.23;;;7.38;;
55067;SDS011;40965;52.368;9.712;2024-01-30T10:25:10;11.35;;;7.15;;
55067;SDS011;40965;52.368;9.712;2024-01-30T10:27:39;12.95;;;7.72;;
55067;SDS011;40965;52.368;9.712;2024-01-30T10:30:08;15.23;;;7.82;;
55067;SDS011;40965;52.368;9.712;2024-01-30T10:32:35;11.88;;;7.35;;
55067;SDS011;40965;52.368;9.712;2024-01-30T10:35:01;8.75;;;7.35;;
55067;SDS011;40965;52.368;9.712;2024-01-30T10:37:28;9.38;;;6.57;;
55067;SDS011;40965;52.368;9.712;2024-01-30T10:39:57;10.10;;;7.18;;
55067;SDS011;40965;52.368;9.712;2024-01-30T10:42:31;15.40;;;8.27;;
55067;SDS011;40965;52.368;9.712;2024-01-30T10:45:08;11.07;;;7.18;;
55067;SDS011;40965;52.368;9.712;2024-01-30T10:47:39;15.95;;;6.85;;
55067;SDS011;40965;52.368;9.712;2024-01-30T10:50:10;9.55;;;7.05;;
55067;SDS011;40965;52.368;9.712;2024-01-30T10:52:37;10.32;;;7.32;;
55067;SDS011;40965;52.368;9.712;2024-01-30T10:55:07;10.15;;;8.77;;
55067;SDS011;40965;52.368;9.712;2024-01-30T10:57:34;9.98;;;7.35;;
55067;SDS011;40965;52.368;9.712;2024-01-30T11:00:06;9.43;;;8.32;;
55067;SDS011;40965;52.368;9.712;2024-01-30T11:02:40;11.43;;;7.53;;
55067;SDS011;40965;52.368;9.712;2024-01-30T11:05:13;10.85;;;6.57;;
55067;SDS011;40965;52.368;9.712;2024-01-30T11:07:40;13.35;;;8.05;;
55067;SDS011;40965;52.368;9.712;2024-01-30T11:10:07;9.00;;;7.10;;
55067;SDS011;40965;52.368;9.712;2024-01-30T11:12:43;9.93;;;6.90;;
55067;SDS011;40965;52.368;9.712;2024-01-30T11:15:13;12.38;;;7.57;;
55067;SDS011;40965;52.368;9.712;2024-01-30T11:17:51;11.35;;;6.78;;
55067;SDS011;40965;52.368;9.712;2024-01-30T11:20:22;11.20;;;7.07;;
55067;SDS011;40965;52.368;9.712;2024-01-30T11:22:53;9.23;;;7.20;;
55067;SDS011;40965;52.368;9.712;2024-01-30T11:25:25;9.55;;;6.55;;
55067;SDS011;40965;52.368;9.712;2024-01-30T11:27:55;13.70;;;7.30;;
55067;SDS011;40965;52.368;9.712;2024-01-30T11:30:24;10.98;;;7.93;;
55067;SDS011;40965;52.368;9.712;2024-01-30T11:33:04;10.93;;;6.78;;
55067;SDS011;40965;52.368;9.712;2024-01-30T11:35:37;9.35;;;6.93;;
55067;SDS011;40965;52.368;9.712;2024-01-30T11:38:09;9.65;;;7.93;;
55067;SDS011;40965;52.368;9.712;2024-01-30T11:40:40;12.43;;;8.18;;
55067;SDS011;40965;52.368;9.712;2024-01-30T11:43:08;7.78;;;6.93;;
55067;SDS011;40965;52.368;9.712;2024-01-30T11:45:36;8.68;;;7.43;;
55067;SDS011;40965;52.368;9.712;2024-01-30T11:48:04;14.23;;;6.93;;
55067;SDS011;40965;52.368;9.712;2024-01-30T11:50:32;8.55;;;7.65;;
55067;SDS011;40965;52.368;9.712;2024-01-30T11:53:00;12.15;;;7.10;;
55067;SDS011;40965;52.368;9.712;2024-01-30T11:55:29;12.98;;;8.00;;
55067;SDS011;40965;52.368;9.712;2024-01-30T11:57:56;13.13;;;7.85;;
55067;SDS011;40965;52.368;9.712;2024-01-30T12:00:24;13.05;;;8.32;;
55067;SDS011;40965;52.368;9.712;2024-01-30T12:02:51;12.45;;;8.57;;
55067;SDS011;40965;52.368;9.712;2024-01-30T12:05:22;10.40;;;7.32;;
55067;SDS011;40965;52.368;9.712;2024-01-30T12:07:52;13.70;;;7.55;;
55067;SDS011;40965;52.368;9.712;2024-01-30T12:10:19;12.55;;;7.75;;
55067;SDS011;40965;52.368;9.712;2024-01-30T12:12:47;8.52;;;7.07;;
55067;SDS011;40965;52.368;9.712;2024-01-30T12:15:16;14.73;;;7.57;;
55067;SDS011;40965;52.368;9.712;2024-01-30T12:17:46;9.57;;;7.47;;
55067;SDS011;40965;52.368;9.712;2024-01-30T12:20:14;9.23;;;7.15;;
55067;SDS011;40965;52.368;9.712;2024-01-30T12:22:45;12.00;;;7.50;;
55067;SDS011;40965;52.368;9.712;2024-01-30T12:25:14;10.05;;;6.90;;
55067;SDS011;40965;52.368;9.712;2024-01-30T12:27:50;8.73;;;6.50;;
55067;SDS011;40965;52.368;9.712;2024-01-30T12:30:17;8.63;;;6.70;;
55067;SDS011;40965;52.368;9.712;2024-01-30T12:32:46;8.93;;;6.53;;
55067;SDS011;40965;52.368;9.712;2024-01-30T12:35:15;7.95;;;6.43;;
55067;SDS011;40965;52.368;9.712;2024-01-30T12:37:46;10.40;;;6.75;;
55067;SDS011;40965;52.368;9.712;2024-01-30T12:40:14;8.93;;;6.88;;
55067;SDS011;40965;52.368;9.712;2024-01-30T12:42:42;14.77;;;8.18;;
55067;SDS011;40965;52.368;9.712;2024-01-30T12:45:11;9.90;;;6.72;;
55067;SDS011;40965;52.368;9.712;2024-01-30T12:47:40;9.05;;;7.07;;
55067;SDS011;40965;52.368;9.712;2024-01-30T12:50:10;6.63;;;5.88;;
55067;SDS011;40965;52.368;9.712;2024-01-30T12:52:37;14.57;;;6.32;;
55067;SDS011;40965;52.368;9.712;2024-01-30T12:55:06;7.95;;;5.60;;
55067;SDS011;40965;52.368;9.712;2024-01-30T12:57:33;8.85;;;6.57;;
55067;SDS011;40965;52.368;9.712;2024-01-30T12:59:59;8.10;;;6.25;;
55067;SDS011;40965;52.368;9.712;2024-01-30T13:02:26;8.50;;;6.80;;
55067;SDS011;40965;52.368;9.712;2024-01-30T13:04:59;11.18;;;7.00;;
55067;SDS011;40965;52.368;9.712;2024-01-30T13:07:26;9.10;;;7.18;;
55067;SDS011;40965;52.368;9.712;2024-01-30T13:09:52;8.88;;;5.90;;
55067;SDS011;40965;52.368;9.712;2024-01-30T13:12:19;7.97;;;6.22;;
55067;SDS011;40965;52.368;9.712;2024-01-30T13:14:46;7.90;;;6.03;;
55067;SDS011;40965;52.368;9.712;2024-01-30T13:17:12;11.68;;;6.97;;
55067;SDS011;40965;52.368;9.712;2024-01-30T13:19:39;9.70;;;7.78;;
55067;SDS011;40965;52.368;9.712;2024-01-30T13:22:06;8.98;;;7.03;;
55067;SDS011;40965;52.368;9.712;2024-01-30T13:24:32;9.00;;;6.05;;
55067;SDS011;40965;52.368;9.712;2024-01-30T13:26:59;9.77;;;5.70;;
55067;SDS011;40965;52.368;9.712;2024-01-30T13:29:25;6.50;;;5.68;;
55067;SDS011;40965;52.368;9.712;2024-01-30T13:31:52;8.40;;;5.40;;
55067;SDS011;40965;52.368;9.712;2024-01-30T13:34:19;9.20;;;7.03;;
55067;SDS011;40965;52.368;9.712;2024-01-30T13:36:45;14.10;;;7.68;;
55067;SDS011;40965;52.368;9.712;2024-01-30T13:39:13;12.18;;;7.10;;
55067;SDS011;40965;52.368;9.712;2024-01-30T13:41:43;9.90;;;5.80;;
55067;SDS011;40965;52.368;9.712;2024-01-30T13:44:10;13.50;;;7.47;;
55067;SDS011;40965;52.368;9.712;2024-01-30T13:46:36;10.18;;;7.03;;
55067;SDS011;40965;52.368;9.712;2024-01-30T13:49:04;9.20;;;6.32;;
55067;SDS011;40965;52.368;9.712;2024-01-30T13:51:31;9.30;;;6.63;;
55067;SDS011;40965;52.368;9.712;2024-01-30T13:53:58;7.82;;;6.60;;
55067;SDS011;40965;52.368;9.712;2024-01-30T13:56:25;9.40;;;7.28;;
55067;SDS011;40965;52.368;9.712;2024-01-30T13:58:55;10.60;;;7.50;;
55067;SDS011;40965;52.368;9.712;2024-01-30T14:01:22;15.43;;;7.55;;
55067;SDS011;40965;52.368;9.712;2024-01-30T14:03:49;12.30;;;7.60;;
55067;SDS011;40965;52.368;9.712;2024-01-30T14:06:15;8.98;;;7.30;;
55067;SDS011;40965;52.368;9.712;2024-01-30T14:08:42;8.13;;;7.32;;
55067;SDS011;40965;52.368;9.712;2024-01-30T14:11:09;9.23;;;7.32;;
55067;SDS011;40965;52.368;9.712;2024-01-30T14:13:35;9.25;;;6.03;;
55067;SDS011;40965;52.368;9.712;2024-01-30T14:16:02;12.52;;;7.40;;
55067;SDS011;40965;52.368;9.712;2024-01-30T14:18:29;9.95;;;6.78;;
55067;SDS011;40965;52.368;9.712;2024-01-30T14:20:55;10.18;;;7.25;;
55067;SDS011;40965;52.368;9.712;2024-01-30T14:23:22;15.98;;;7.63;;
55067;SDS011;40965;52.368;9.712;2024-01-30T14:25:50;11.18;;;6.80;;
55067;SDS011;40965;52.368;9.712;2024-01-30T14:28:17;12.20;;;7.38;;
55067;SDS011;40965;52.368;9.712;2024-01-30T14:30:44;10.13;;;7.20;;
55067;SDS011;40965;52.368;9.712;2024-01-30T14:33:11;10.45;;;6.72;;
55067;SDS011;40965;52.368;9.712;2024-01-30T14:35:37;12.82;;;8.25;;
55067;SDS011;40965;52.368;9.712;2024-01-30T14:38:05;9.18;;;6.50;;
55067;SDS011;40965;52.368;9.712;2024-01-30T14:40:32;10.43;;;6.47;;